METAR v bližini

 

LJMB - Maribor Edvarda Rusjana, Slovenia
Oddaljenost od postaje: SV 30,9km
Podatki zajeti: 12/11/2019 22:00
Rahlo rosi, Oblačno
Rahlo rosi, Oblačno
 Veter iz smeri SSV
Veter: SSV 15 km/h
Temperatura: 7°C
Občutek mraza zaradi vetra: 4°C
Rosišče: 6°C
Vlažnost: 93%
Tlak: 1003 hPa
Stanje: Rahlo rosi
Oblačnost: Oblačno
Vidljivost: 10 km
Podrobnosti o oblakih: Oblačno 610 m
2019/11/12 21:00 LJMB 122100Z 03008KT 9999 -DZ OVC020 07/06 Q1003
LJLJ - Ljubljana Brnik, Slovenia
Oddaljenost od postaje: S 103km
Podatki zajeti: 12/11/2019 22:30
Rahlo dežuje, Oblačno
Rahlo dežuje, Oblačno
 Veter iz smeri S
Veter: S 7 km/h
Temperatura: 7°C
Občutek mraza zaradi vetra: 6°C
Rosišče: 6°C
Vlažnost: 93%
Tlak: 1001 hPa
Stanje: Rahlo dežuje
Oblačnost: Oblačno
Vidljivost: 8 km
Podrobnosti o oblakih: Rahlo oblačno 122 m
Delno oblačno 274 m
Oblačno 823 m
2019/11/12 21:30 LJLJ 122130Z 35004KT 320V020 8000 -RA FEW004 SCT009 OVC027 07/06 Q1001 NOSIG
 
LJPZ - Portorož, Slovenia
Oddaljenost od postaje: SSZ 224km
Podatki zajeti: 12/11/2019 22:30
Dežuje, Oblačno
Dežuje, Oblačno
 Veter iz smeri JV
Veter: JV 15 km/h
Temperatura: 13°C
Rosišče: 10°C
Vlažnost: 82%
Tlak: 998 hPa
Stanje: Dežuje
Oblačnost: Oblačno
Vidljivost: 8 km
Podrobnosti o oblakih: Rahlo oblačno 640 m
Delno oblačno 914 m
Oblačno 1463 m
2019/11/12 21:30 LJPZ 122130Z AUTO 14008KT 110V190 8000 SHRA FEW021/// SCT030/// OVC048/// 13/10 Q0998
LJCE - Cerklje, Slovenia
Oddaljenost od postaje: VSV 83,9km
Podatki zajeti: 12/11/2019 22:30
Dežuje, Oblačno
Dežuje, Oblačno
 Veter iz smeri V
Veter: V 9 km/h
Temperatura: 9°C
Občutek mraza zaradi vetra: 7°C
Rosišče: 8°C
Vlažnost: 94%
Tlak: 1001 hPa
Stanje: Dežuje
Oblačnost: Oblačno
Vidljivost: 9 km
Podrobnosti o oblakih: Oblačno 457 m
2019/11/12 21:30 LJCE 122130Z AUTO 09005KT 050V110 9000 SHRA OVC015/// 09/08 Q1001
 
LOWG - Graz, Austria
Oddaljenost od postaje: SSZ 99,6km
Podatki zajeti: 12/11/2019 22:20
Pretežno oblačno
Pretežno oblačno
 Veter iz smeri spremenljiv
Veter: spremenljiv 4 km/h
Temperatura: 7°C
Rosišče: 6°C
Vlažnost: 93%
Tlak: 1003 hPa
Oblačnost: Pretežno oblačno
Vidljivost: 10 km
Podrobnosti o oblakih: Delno oblačno 335 m
Pretežno oblačno 427 m
2019/11/12 21:20 LOWG 122120Z AUTO VRB02KT 9999 SCT011 BKN014 07/06 Q1003 TEMPO SCT010 BKN017
LOWK - Klagenfurt, Austria
Oddaljenost od postaje: SZ 121km
Podatki zajeti: 12/11/2019 22:20
Rahlo dežuje, Pretežno oblačno
Rahlo dežuje, Pretežno oblačno
 Veter iz smeri ZJZ
Veter: ZJZ 6 km/h
Temperatura: 5°C
Rosišče: 5°C
Vlažnost: 100%
Tlak: 1002 hPa
Stanje: Rahlo dežuje
Oblačnost: Pretežno oblačno
Vidljivost: 10 km
Podrobnosti o oblakih: Delno oblačno 122 m
Pretežno oblačno 396 m
Pretežno oblačno 610 m
2019/11/12 21:20 LOWK 122120Z 25003KT 210V310 9999 -RA SCT004 BKN013 BKN020 05/05 Q1002 R10L/29//95 TEMPO 3000 BR SCT004 BKN008
 
LDRI - Rijeka, Croatia
Oddaljenost od postaje: SZ 243km
Podatki zajeti: 12/11/2019 22:30
Rahlo dežuje, Pretežno oblačno
Rahlo dežuje, Pretežno oblačno
 Veter iz smeri JV
Veter: JV 30 km/h, Sunek vetra: 50 km/h
Temperatura: 16°C
Rosišče: 10°C
Vlažnost: 68%
Tlak: 998 hPa
Stanje: Rahlo dežuje
Oblačnost: Pretežno oblačno
Vidljivost: 10 km
Podrobnosti o oblakih: Pretežno oblačno 1006 m
2019/11/12 21:30 LDRI 122130Z 14016G27KT 9999 -RA BKN033 16/10 Q0998
LIPQ - Ronchi, Italy
Oddaljenost od postaje: VJV 224km
Podatki zajeti: 12/11/2019 22:20
Rahlo dežuje, Pretežno oblačno
Rahlo dežuje, Pretežno oblačno
 Veter iz smeri VJV
Veter: VJV 22 km/h
Temperatura: 12°C
Rosišče: 10°C
Vlažnost: 88%
Tlak: 998 hPa
Stanje: Rahlo dežuje
Oblačnost: Pretežno oblačno
Vidljivost: 10 km
Podrobnosti o oblakih: Delno oblačno 762 m
Pretežno oblačno 1524 m
2019/11/12 21:20 LIPQ 122120Z 12012KT 090V150 9999 -RA SCT025 BKN050 12/10 Q0998 RERA
 
LDZA - Zagreb, Croatia
Oddaljenost od postaje: JJV 143km
Podatki zajeti: 12/11/2019 22:30
Jasno
Jasno
 Veter iz smeri ZJZ
Veter: ZJZ 6 km/h
Temperatura: 8°C
Rosišče: 7°C
Vlažnost: 93%
Tlak: 1001 hPa
Stanje: Jasno
Vidljivost: večja od 10 km
2019/11/12 21:30 LDZA 122130Z 25003KT 130V290 CAVOK 08/07 Q1001 BECMG 3000 BR
LIVT - Trieste, Italy
Oddaljenost od postaje: ZSZ 250km
Podatki zajeti: 12/11/2019 18:55
Ni posodobljen

 
2019/11/12 17:55 LIVT 121755Z ///17KT 7000 -RA BKN020 11/09 Q0995 RMK OVC QUK / QUL / VIS MAR 7 KM VIS MIN 7000
 
LIPA - Aviano, Italy
Oddaljenost od postaje: S 310km
Podatki zajeti: 12/11/2019 21:55
Pretežno oblačno
Pretežno oblačno
 Veter iz smeri SV
Veter: SV 41 km/h
Temperatura: 11°C
Rosišče: 9°C
Vlažnost: 88%
Tlak: 996 hPa
Oblačnost: Pretežno oblačno
Vidljivost: 10 km
Podrobnosti o oblakih: Delno oblačno 1067 m
Pretežno oblačno 1524 m
2019/11/12 20:55 LIPA 122055Z 04022KT 9999 SCT035 BKN050 11/09 Q0996 RMK OVC VIS MIN 9999 WIND THR05 /////KT WIND THR23 /////KT A2944 BLU
LDPL - Pula, Croatia
Oddaljenost od postaje: SSV 304km
Podatki zajeti: 12/11/2019 22:30
Rahlo dežuje, Nevihte v okolici, Pretežno oblačno
Rahlo dežuje, Nevihte v okolici, Pretežno oblačno
 Veter iz smeri Z
Veter: Z 9 km/h
Temperatura: 12°C
Rosišče: 11°C
Vlažnost: 94%
Tlak: 997 hPa
Stanje: Rahlo dežuje, Nevihte v okolici
Oblačnost: Pretežno oblačno
Vidljivost: 10 km
Podrobnosti o oblakih: Rahlo oblačno 610 m
Pretežno oblačno 1219 m
2019/11/12 21:30 LDPL 122130Z 28005KT 230V320 9999 -RA VCTS FEW020CB BKN040 12/11 Q0997 RERA TEMPO TSRA